Time;durP1;ratioP1;P1;durP2;ratioP2;P2;SDS_P1;SDS_P2;PMS_P1;PMS_P2;Temp;Humidity;BMP_temperature;BMP_pressure;BME280_temperature;BME280_humidity;BME280_pressure;Samples;Min_cycle;Max_cycle;Signal;HPM_P1;HPM_P2
2023/07/17 00:00:15;;;;;;;11.27;8.85;;;17.30;83.70;;;;;;5017623;28;20645;-90
2023/07/17 00:02:42;;;;;;;14.40;8.43;;;17.30;83.70;;;;;;5017617;28;20185;-90
2023/07/17 00:05:09;;;;;;;18.67;8.88;;;17.20;83.60;;;;;;5016530;28;20208;-90
2023/07/17 00:07:35;;;;;;;14.02;9.85;;;17.20;83.60;;;;;;5016906;28;20173;-90
2023/07/17 00:10:03;;;;;;;10.50;8.32;;;17.10;83.60;;;;;;5015389;28;20177;-90
2023/07/17 00:12:29;;;;;;;9.50;8.32;;;17.10;83.80;;;;;;5016759;28;20587;-90
2023/07/17 00:14:55;;;;;;;10.32;9.10;;;16.90;83.80;;;;;;5017550;28;20244;-91
2023/07/17 00:17:20;;;;;;;11.65;8.48;;;17.00;83.90;;;;;;5020306;28;20181;-91
2023/07/17 00:19:56;;;;;;;15.77;8.80;;;16.90;83.90;;;;;;5017740;28;20260;-91
2023/07/17 00:22:24;;;;;;;9.43;8.52;;;16.90;83.90;;;;;;5018626;28;20172;-91
2023/07/17 00:24:53;;;;;;;10.85;8.77;;;16.90;83.90;;;;;;5019434;28;20228;-91
2023/07/17 00:27:19;;;;;;;9.50;8.32;;;16.90;83.90;;;;;;5016618;28;20594;-90
2023/07/17 00:29:45;;;;;;;9.65;8.65;;;16.80;84.00;;;;;;5017299;28;20177;-90
2023/07/17 00:32:14;;;;;;;10.48;8.73;;;16.70;84.10;;;;;;5020137;28;20192;-90
2023/07/17 00:34:40;;;;;;;9.88;8.88;;;16.80;84.20;;;;;;5016651;28;20205;-90
2023/07/17 00:37:06;;;;;;;12.50;9.15;;;16.90;84.10;;;;;;5015016;28;20178;-90
2023/07/17 00:39:32;;;;;;;16.25;9.60;;;16.90;83.90;;;;;;5014828;28;20200;-90
2023/07/17 00:41:58;;;;;;;12.80;9.57;;;16.90;83.80;;;;;;5018851;28;20630;-91
2023/07/17 00:44:23;;;;;;;9.52;8.60;;;16.90;83.70;;;;;;5018136;28;20584;-91
2023/07/17 00:46:52;;;;;;;10.20;9.25;;;16.90;83.40;;;;;;5016300;28;20176;-90
2023/07/17 00:49:18;;;;;;;12.32;9.65;;;16.80;83.40;;;;;;5017135;28;20165;-91
2023/07/17 00:51:44;;;;;;;18.58;9.43;;;16.70;83.50;;;;;;5017401;28;20188;-91
2023/07/17 00:54:11;;;;;;;10.05;8.98;;;16.80;83.70;;;;;;5014985;28;20233;-91
2023/07/17 00:56:37;;;;;;;9.85;8.95;;;16.70;83.70;;;;;;5014746;28;20228;-91
2023/07/17 00:59:04;;;;;;;12.43;9.20;;;16.70;83.70;;;;;;5014890;28;20209;-92
2023/07/17 01:01:31;;;;;;;16.27;13.25;;;16.70;83.80;;;;;;5015776;28;20641;-91
2023/07/17 01:04:00;;;;;;;11.10;10.00;;;16.70;83.70;;;;;;5013720;28;20283;-91
2023/07/17 01:06:26;;;;;;;13.82;9.77;;;16.80;83.70;;;;;;5020342;28;20173;-90
2023/07/17 01:08:52;;;;;;;11.90;9.75;;;16.80;83.60;;;;;;5012901;28;20272;-89
2023/07/17 01:11:18;;;;;;;10.45;9.45;;;16.80;83.60;;;;;;5012928;28;20723;-90
2023/07/17 01:13:48;;;;;;;13.30;9.10;;;16.80;83.40;;;;;;5014150;28;20201;-90
2023/07/17 01:16:14;;;;;;;9.68;8.45;;;16.70;83.40;;;;;;5013998;28;20295;-89
2023/07/17 01:18:40;;;;;;;12.27;8.70;;;16.70;83.40;;;;;;5012821;28;20260;-89
2023/07/17 01:21:08;;;;;;;11.60;8.65;;;16.70;83.40;;;;;;5012704;28;20177;-89
2023/07/17 01:23:34;;;;;;;11.70;8.55;;;16.80;83.30;;;;;;5012642;28;20606;-89
2023/07/17 01:26:00;;;;;;;12.77;8.48;;;16.80;83.30;;;;;;5013856;28;20221;-88
2023/07/17 01:28:25;;;;;;;12.18;8.30;;;16.70;83.40;;;;;;5013759;28;20181;-88
2023/07/17 01:30:51;;;;;;;8.90;8.00;;;16.70;83.60;;;;;;5013996;28;20253;-89
2023/07/17 01:33:17;;;;;;;10.60;7.85;;;16.70;83.70;;;;;;5013706;28;20692;-89
2023/07/17 01:35:44;;;;;;;8.15;7.45;;;16.70;83.80;;;;;;5013231;28;20201;-88
2023/07/17 01:38:09;;;;;;;14.25;8.50;;;16.70;83.80;;;;;;5012874;28;20169;-89
2023/07/17 01:40:35;;;;;;;9.50;8.30;;;16.70;83.90;;;;;;5012470;28;20307;-89
2023/07/17 01:43:01;;;;;;;11.38;8.23;;;16.70;84.10;;;;;;5012292;28;20653;-89
2023/07/17 01:45:27;;;;;;;11.60;7.50;;;16.70;84.20;;;;;;5012641;28;20181;-88
2023/07/17 01:47:52;;;;;;;10.68;8.07;;;16.70;84.40;;;;;;5012552;28;20177;-88
2023/07/17 01:50:18;;;;;;;10.50;7.93;;;16.60;84.60;;;;;;5012419;28;20174;-88
2023/07/17 01:52:43;;;;;;;12.35;7.63;;;16.60;84.60;;;;;;5012211;28;20189;-88
2023/07/17 01:55:09;;;;;;;11.50;7.43;;;16.60;84.80;;;;;;5012410;28;20204;-88
2023/07/17 01:57:35;;;;;;;15.05;7.40;;;16.60;85.20;;;;;;5013465;28;20224;-88
2023/07/17 02:00:00;;;;;;;10.02;7.53;;;16.60;85.50;;;;;;5012199;28;20172;-89
2023/07/17 02:02:26;;;;;;;10.15;7.43;;;16.60;85.40;;;;;;5012474;28;20173;-88
2023/07/17 02:04:51;;;;;;;9.70;7.13;;;16.60;85.40;;;;;;5012447;28;20660;-88
2023/07/17 02:07:17;;;;;;;9.82;6.75;;;16.60;85.80;;;;;;5012132;28;20668;-88
2023/07/17 02:09:42;;;;;;;9.60;7.03;;;16.60;85.80;;;;;;5012292;28;20213;-88
2023/07/17 02:12:08;;;;;;;9.20;7.00;;;16.70;85.80;;;;;;5012252;28;20276;-88
2023/07/17 02:14:34;;;;;;;8.20;6.88;;;16.60;86.00;;;;;;5014727;28;20201;-88
2023/07/17 02:17:00;;;;;;;10.57;6.88;;;16.60;86.40;;;;;;5017441;28;20173;-88
2023/07/17 02:19:25;;;;;;;12.60;6.90;;;16.50;86.60;;;;;;5016049;28;20182;-88
2023/07/17 02:21:51;;;;;;;14.95;6.75;;;16.50;86.80;;;;;;5016074;28;20212;-88
2023/07/17 02:24:16;;;;;;;11.60;7.57;;;16.50;86.90;;;;;;5015903;28;20189;-88
2023/07/17 02:26:42;;;;;;;11.77;6.80;;;16.50;86.30;;;;;;5017443;28;20174;-88
2023/07/17 02:29:07;;;;;;;10.75;7.43;;;16.50;86.10;;;;;;5016428;28;20522;-88
2023/07/17 02:31:33;;;;;;;11.88;6.35;;;16.50;86.00;;;;;;5017127;28;20203;-88
2023/07/17 02:33:58;;;;;;;10.82;7.25;;;16.50;85.80;;;;;;5016547;28;20637;-88
2023/07/17 02:36:24;;;;;;;15.32;6.93;;;16.50;85.70;;;;;;5016059;28;20254;-88
2023/07/17 02:38:49;;;;;;;10.93;7.10;;;16.50;85.60;;;;;;5015864;28;20231;-88
2023/07/17 02:41:15;;;;;;;15.27;7.30;;;16.50;85.80;;;;;;5015710;28;20185;-88
2023/07/17 02:43:40;;;;;;;12.50;7.30;;;16.40;85.80;;;;;;5016208;28;20251;-88
2023/07/17 02:46:06;;;;;;;16.02;7.00;;;16.30;86.00;;;;;;5015522;28;20185;-88
2023/07/17 02:48:32;;;;;;;9.93;6.68;;;16.30;86.00;;;;;;5015867;28;20180;-87
2023/07/17 02:50:57;;;;;;;10.07;6.95;;;16.20;86.40;;;;;;5015485;28;20185;-88
2023/07/17 02:53:23;;;;;;;10.35;7.10;;;16.20;86.50;;;;;;5015319;28;20224;-88
2023/07/17 02:55:48;;;;;;;7.53;6.68;;;16.20;86.40;;;;;;5015670;28;20228;-88
2023/07/17 02:58:17;;;;;;;10.45;7.18;;;16.30;86.40;;;;;;5017022;28;20657;-88
2023/07/17 03:00:43;;;;;;;12.13;6.75;;;16.20;86.50;;;;;;5015644;28;20181;-88
2023/07/17 03:03:09;;;;;;;12.98;7.55;;;16.20;86.60;;;;;;5015346;28;20173;-88
2023/07/17 03:05:35;;;;;;;9.55;7.03;;;16.20;86.30;;;;;;5015226;28;20670;-88
2023/07/17 03:08:01;;;;;;;9.02;6.85;;;16.20;86.00;;;;;;5015281;28;20231;-88
2023/07/17 03:10:27;;;;;;;12.57;6.65;;;16.20;86.10;;;;;;5015190;28;20177;-88
2023/07/17 03:12:52;;;;;;;8.43;6.50;;;16.20;85.80;;;;;;5015086;28;20226;-88
2023/07/17 03:15:18;;;;;;;11.63;6.68;;;16.20;85.80;;;;;;5016121;28;20201;-88
2023/07/17 03:17:43;;;;;;;10.43;7.20;;;16.20;85.90;;;;;;5014950;28;20176;-88
2023/07/17 03:20:10;;;;;;;11.25;6.93;;;16.10;86.10;;;;;;5014931;28;20181;-88
2023/07/17 03:22:39;;;;;;;7.90;6.53;;;16.10;86.30;;;;;;5014887;28;20521;-88
2023/07/17 03:25:05;;;;;;;8.45;6.90;;;16.00;86.50;;;;;;5014105;28;20663;-88
2023/07/17 03:27:31;;;;;;;9.77;6.25;;;15.90;86.80;;;;;;5014653;28;20177;-88
2023/07/17 03:29:56;;;;;;;9.40;6.88;;;15.90;86.90;;;;;;5014821;28;20180;-88
2023/07/17 03:32:22;;;;;;;8.63;6.55;;;16.00;86.30;;;;;;5016018;28;20240;-88
2023/07/17 03:34:47;;;;;;;8.65;6.28;;;16.10;86.30;;;;;;5015666;28;20202;-88
2023/07/17 03:37:13;;;;;;;10.05;6.75;;;16.10;86.40;;;;;;5015020;28;20181;-88
2023/07/17 03:39:39;;;;;;;12.88;6.72;;;16.10;86.20;;;;;;5014697;28;20667;-88
2023/07/17 03:42:10;;;;;;;10.18;6.53;;;16.10;86.20;;;;;;5014518;28;20177;-88
2023/07/17 03:44:39;;;;;;;12.00;7.30;;;16.10;86.20;;;;;;5015275;28;20727;-88
2023/07/17 03:47:05;;;;;;;9.50;6.63;;;16.10;86.40;;;;;;5014445;28;20598;-88
2023/07/17 03:49:31;;;;;;;9.40;6.60;;;16.10;86.20;;;;;;5014373;28;20548;-88
2023/07/17 03:51:58;;;;;;;6.45;5.82;;;16.10;86.30;;;;;;5015024;28;20191;-88
2023/07/17 03:54:27;;;;;;;9.60;6.22;;;16.20;86.20;;;;;;5014116;28;20300;-87
2023/07/17 03:56:52;;;;;;;10.23;6.10;;;16.20;85.40;;;;;;5014314;28;20688;-88
2023/07/17 03:59:24;;;;;;;7.97;6.45;;;16.20;85.00;;;;;;5014592;28;20181;-88
2023/07/17 04:01:51;;;;;;;7.35;5.45;;;16.30;84.80;;;;;;5014845;28;20174;-88
2023/07/17 04:04:17;;;;;;;9.82;6.82;;;16.30;84.40;;;;;;5014128;28;20200;-88
2023/07/17 04:06:42;;;;;;;9.23;6.18;;;16.40;84.00;;;;;;5014162;28;20174;-88
2023/07/17 04:09:08;;;;;;;10.00;6.88;;;16.40;83.80;;;;;;5014027;28;20177;-88
2023/07/17 04:11:33;;;;;;;11.00;6.78;;;16.40;83.80;;;;;;5013940;28;20548;-88
2023/07/17 04:13:59;;;;;;;11.45;6.90;;;16.40;84.00;;;;;;5015029;28;20669;-88
2023/07/17 04:16:26;;;;;;;9.40;6.68;;;16.30;83.90;;;;;;5014150;28;20279;-87
2023/07/17 04:18:52;;;;;;;11.77;7.13;;;16.40;83.80;;;;;;5013851;28;20185;-88
2023/07/17 04:21:17;;;;;;;15.00;6.90;;;16.40;84.00;;;;;;5013714;28;20178;-88
2023/07/17 04:23:43;;;;;;;12.75;8.07;;;16.50;83.60;;;;;;5015103;28;20201;-88
2023/07/17 04:26:08;;;;;;;12.43;6.93;;;16.70;82.60;;;;;;5013750;28;20174;-88
2023/07/17 04:28:35;;;;;;;12.98;7.20;;;16.80;82.80;;;;;;5014467;28;20712;-88
2023/07/17 04:31:02;;;;;;;11.52;7.47;;;16.80;82.40;;;;;;5013790;28;20177;-88
2023/07/17 04:33:28;;;;;;;13.60;8.27;;;16.80;82.30;;;;;;5013683;28;20202;-88
2023/07/17 04:35:56;;;;;;;13.27;7.45;;;16.80;82.40;;;;;;5013775;28;20203;-88
2023/07/17 04:38:21;;;;;;;11.60;7.28;;;16.80;82.40;;;;;;5012488;28;20177;-88
2023/07/17 04:40:47;;;;;;;14.45;7.35;;;16.70;82.50;;;;;;5015009;28;20173;-88
2023/07/17 04:43:12;;;;;;;10.88;7.82;;;16.80;81.90;;;;;;5015100;28;20185;-88
2023/07/17 04:45:42;;;;;;;9.90;7.43;;;16.80;82.40;;;;;;5013942;28;20288;-87
2023/07/17 04:48:07;;;;;;;9.75;7.47;;;16.80;82.50;;;;;;5013286;28;20268;-88
2023/07/17 04:50:33;;;;;;;17.88;8.07;;;16.70;82.60;;;;;;5013348;28;20223;-88
2023/07/17 04:52:58;;;;;;;15.80;7.95;;;16.80;82.60;;;;;;5013367;28;20197;-88
2023/07/17 04:55:24;;;;;;;13.35;8.60;;;16.80;82.70;;;;;;5013122;28;20212;-88
2023/07/17 04:57:49;;;;;;;11.75;7.18;;;16.80;82.60;;;;;;5013224;28;20173;-88
2023/07/17 05:00:17;;;;;;;9.85;7.38;;;16.70;82.60;;;;;;5014420;28;20169;-88
2023/07/17 05:02:43;;;;;;;15.52;8.05;;;16.80;82.70;;;;;;5013112;28;20173;-88
2023/07/17 05:05:09;;;;;;;9.70;6.82;;;16.80;82.80;;;;;;5013314;28;20204;-88
2023/07/17 05:07:34;;;;;;;10.70;7.25;;;16.80;82.80;;;;;;5013022;28;20180;-88
2023/07/17 05:10:00;;;;;;;10.18;6.45;;;16.80;82.90;;;;;;5012940;28;20181;-88
2023/07/17 05:12:25;;;;;;;10.25;6.95;;;16.80;83.20;;;;;;5014119;28;20228;-88
2023/07/17 05:14:51;;;;;;;14.05;6.82;;;16.80;83.60;;;;;;5013061;28;20209;-88
2023/07/17 05:17:17;;;;;;;13.23;7.85;;;16.80;83.20;;;;;;5012821;28;20177;-88
2023/07/17 05:19:42;;;;;;;10.60;7.40;;;16.80;83.00;;;;;;5012892;28;20185;-88
2023/07/17 05:22:08;;;;;;;9.07;7.53;;;16.80;83.50;;;;;;5014018;28;20177;-89
2023/07/17 05:24:33;;;;;;;10.52;7.30;;;16.70;83.60;;;;;;5013914;28;20189;-88
2023/07/17 05:26:59;;;;;;;9.68;7.05;;;16.70;83.50;;;;;;5012819;28;20178;-88
2023/07/17 05:29:24;;;;;;;14.25;7.40;;;16.70;83.60;;;;;;5013290;28;20543;-88
2023/07/17 05:31:50;;;;;;;13.77;7.25;;;16.70;83.20;;;;;;5013464;28;20549;-88
2023/07/17 05:34:15;;;;;;;12.20;7.82;;;16.80;82.70;;;;;;5012441;28;20190;-88
2023/07/17 05:36:41;;;;;;;9.70;6.75;;;16.80;83.00;;;;;;5012477;28;20200;-88
2023/07/17 05:39:06;;;;;;;16.05;7.97;;;16.80;83.50;;;;;;5012414;28;20663;-88
2023/07/17 05:41:33;;;;;;;11.15;7.18;;;16.90;83.40;;;;;;5012491;28;20629;-88
2023/07/17 05:43:58;;;;;;;14.23;6.47;;;16.90;82.70;;;;;;5012315;28;20201;-88
2023/07/17 05:46:24;;;;;;;12.60;7.80;;;17.00;82.80;;;;;;5012421;28;20177;-88
2023/07/17 05:48:49;;;;;;;12.48;6.82;;;17.00;82.90;;;;;;5012040;28;20185;-87
2023/07/17 05:51:15;;;;;;;10.85;7.10;;;17.10;82.30;;;;;;5012382;28;20235;-88
2023/07/17 05:53:41;;;;;;;13.55;7.55;;;17.10;82.00;;;;;;5012186;28;20271;-88
2023/07/17 05:56:06;;;;;;;10.18;7.10;;;17.20;81.40;;;;;;5012255;28;20672;-88
2023/07/17 05:58:32;;;;;;;9.77;7.43;;;17.30;80.90;;;;;;5013718;28;20628;-88
2023/07/17 06:00:57;;;;;;;12.80;7.95;;;17.40;81.10;;;;;;5012116;28;20182;-88
2023/07/17 06:03:23;;;;;;;13.40;8.05;;;17.40;79.70;;;;;;5012229;28;20268;-88
2023/07/17 06:05:48;;;;;;;14.18;7.85;;;17.40;79.70;;;;;;5012485;28;20177;-89
2023/07/17 06:08:14;;;;;;;10.50;7.05;;;17.60;80.20;;;;;;5012242;28;20185;-88
2023/07/17 06:10:42;;;;;;;10.63;8.00;;;17.60;80.30;;;;;;5013586;28;20173;-88
2023/07/17 06:13:07;;;;;;;11.77;8.23;;;17.70;80.30;;;;;;5012183;28;20187;-88
2023/07/17 06:15:33;;;;;;;12.10;8.75;;;17.70;79.60;;;;;;5011993;28;20209;-89
2023/07/17 06:17:58;;;;;;;11.30;7.85;;;17.70;79.70;;;;;;5012080;28;20187;-88
2023/07/17 06:20:24;;;;;;;11.63;8.57;;;17.90;80.30;;;;;;5012222;28;20181;-86
2023/07/17 06:22:49;;;;;;;15.52;8.43;;;17.90;80.00;;;;;;5013261;28;20169;-88
2023/07/17 06:25:15;;;;;;;14.20;7.93;;;17.80;79.00;;;;;;5012021;28;20247;-89
2023/07/17 06:27:40;;;;;;;9.20;7.32;;;17.80;78.80;;;;;;5013051;28;20177;-89
2023/07/17 06:30:07;;;;;;;12.70;8.07;;;18.00;78.80;;;;;;5012123;28;20653;-89
2023/07/17 06:32:32;;;;;;;13.65;8.52;;;18.00;79.10;;;;;;5013048;28;20288;-88
2023/07/17 06:34:58;;;;;;;12.88;8.65;;;18.00;77.60;;;;;;5012072;28;20302;-88
2023/07/17 06:37:24;;;;;;;12.65;8.80;;;18.10;77.70;;;;;;5011922;28;20181;-88
2023/07/17 06:39:49;;;;;;;10.32;8.77;;;18.00;77.20;;;;;;5013438;28;20169;-88
2023/07/17 06:42:15;;;;;;;12.50;9.52;;;18.10;77.70;;;;;;5011984;28;20174;-88
2023/07/17 06:44:40;;;;;;;14.90;9.20;;;18.10;76.90;;;;;;5011884;28;20192;-87
2023/07/17 06:47:06;;;;;;;15.77;9.70;;;18.20;77.50;;;;;;5013066;28;20224;-88
2023/07/17 06:49:31;;;;;;;11.90;10.27;;;18.30;77.40;;;;;;5012199;28;20201;-87
2023/07/17 06:51:57;;;;;;;14.13;10.90;;;18.20;77.20;;;;;;5012085;28;20596;-87
2023/07/17 06:54:22;;;;;;;15.38;11.40;;;18.30;77.60;;;;;;5011730;28;20622;-88
2023/07/17 06:56:48;;;;;;;11.40;10.20;;;18.30;77.20;;;;;;5012935;28;20272;-88
2023/07/17 06:59:13;;;;;;;13.10;10.10;;;18.30;77.30;;;;;;5011767;28;20178;-87
2023/07/17 07:01:39;;;;;;;13.45;10.48;;;18.40;76.80;;;;;;5014007;28;20204;-88
2023/07/17 07:04:05;;;;;;;12.57;10.77;;;18.40;76.70;;;;;;5015678;28;20193;-88
2023/07/17 07:06:30;;;;;;;15.48;9.90;;;18.50;77.00;;;;;;5015324;28;20181;-87
2023/07/17 07:08:56;;;;;;;14.20;10.82;;;18.70;78.40;;;;;;5015331;28;20177;-88
2023/07/17 07:11:21;;;;;;;13.40;10.63;;;18.70;77.10;;;;;;5015465;28;20637;-88
2023/07/17 07:13:47;;;;;;;12.82;11.52;;;18.50;76.30;;;;;;5015120;28;20205;-88
2023/07/17 07:16:12;;;;;;;12.23;10.88;;;18.20;76.20;;;;;;5015190;28;20212;-88
2023/07/17 07:18:38;;;;;;;15.02;10.80;;;18.40;75.00;;;;;;5016660;28;20173;-88
2023/07/17 07:21:04;;;;;;;12.43;10.27;;;18.40;76.20;;;;;;5016631;28;20177;-88
2023/07/17 07:23:29;;;;;;;13.40;11.60;;;18.50;76.90;;;;;;5016312;28;20247;-88
2023/07/17 07:25:55;;;;;;;15.00;12.05;;;18.60;75.50;;;;;;5015056;28;20188;-88
2023/07/17 07:28:21;;;;;;;17.63;12.68;;;18.60;74.40;;;;;;5014920;28;20626;-88
2023/07/17 07:30:47;;;;;;;17.52;12.20;;;18.70;74.40;;;;;;5015000;28;20177;-88
2023/07/17 07:33:13;;;;;;;12.45;11.23;;;18.80;74.60;;;;;;5015028;28;20590;-88
2023/07/17 07:35:43;;;;;;;16.23;11.00;;;18.70;75.60;;;;;;5016178;28;20193;-88
2023/07/17 07:38:09;;;;;;;17.05;12.38;;;18.80;75.80;;;;;;5014997;28;20176;-88
2023/07/17 07:40:34;;;;;;;14.70;10.73;;;18.90;74.40;;;;;;5014698;28;20177;-88
2023/07/17 07:43:00;;;;;;;13.95;11.25;;;19.20;75.50;;;;;;5014757;28;20238;-88
2023/07/17 07:45:25;;;;;;;13.88;11.00;;;19.20;74.10;;;;;;5014955;28;20173;-88
2023/07/17 07:47:50;;;;;;;15.02;13.10;;;19.20;75.10;;;;;;5014609;28;20177;-89
2023/07/17 07:50:16;;;;;;;14.75;13.35;;;19.20;72.50;;;;;;5016025;28;20170;-89
2023/07/17 07:52:42;;;;;;;14.95;13.63;;;19.20;71.10;;;;;;5015832;28;20214;-88
2023/07/17 07:55:07;;;;;;;14.60;13.32;;;19.10;69.30;;;;;;5014484;28;20339;-88
2023/07/17 07:57:33;;;;;;;17.95;13.13;;;19.10;70.00;;;;;;5015628;28;20256;-88
2023/07/17 07:59:58;;;;;;;14.82;12.80;;;19.30;71.30;;;;;;5014524;28;20173;-88
2023/07/17 08:02:24;;;;;;;14.10;12.60;;;19.40;70.30;;;;;;5014288;28;20178;-88
2023/07/17 08:04:50;;;;;;;14.30;12.75;;;19.20;70.00;;;;;;5014098;28;20653;-88
2023/07/17 08:07:16;;;;;;;13.80;12.18;;;19.20;70.30;;;;;;5015704;28;20208;-89
2023/07/17 08:09:41;;;;;;;18.42;14.18;;;19.20;69.10;;;;;;5015609;28;20173;-90
2023/07/17 08:12:07;;;;;;;13.57;12.35;;;19.20;69.80;;;;;;5014089;28;20610;-88
2023/07/17 08:14:32;;;;;;;14.43;13.05;;;19.50;69.00;;;;;;5015358;28;20208;-89
2023/07/17 08:16:58;;;;;;;14.27;12.88;;;19.20;69.50;;;;;;5015316;28;20642;-88
2023/07/17 08:19:24;;;;;;;13.95;12.75;;;19.30;70.10;;;;;;5014041;28;20174;-89
2023/07/17 08:21:50;;;;;;;14.77;13.40;;;19.50;69.00;;;;;;5015246;28;20181;-88
2023/07/17 08:24:15;;;;;;;15.48;13.98;;;19.70;69.00;;;;;;5014084;28;20189;-88
2023/07/17 08:26:41;;;;;;;14.38;13.07;;;19.70;68.70;;;;;;5015383;28;20231;-89
2023/07/17 08:29:07;;;;;;;15.05;13.68;;;20.00;68.40;;;;;;5013808;28;20328;-89
2023/07/17 08:31:33;;;;;;;16.45;14.82;;;20.20;68.50;;;;;;5013986;28;20177;-88
2023/07/17 08:34:00;;;;;;;16.02;14.68;;;20.00;66.90;;;;;;5014609;28;20197;-88
2023/07/17 08:36:26;;;;;;;15.60;14.07;;;19.80;67.10;;;;;;5015332;28;20202;-89
2023/07/17 08:38:52;;;;;;;14.95;13.55;;;19.80;68.20;;;;;;5014078;28;20184;-86
2023/07/17 08:41:18;;;;;;;14.85;13.23;;;19.80;68.80;;;;;;5013670;28;20174;-88
2023/07/17 08:43:44;;;;;;;14.00;12.88;;;19.80;69.70;;;;;;5013940;28;20203;-88
2023/07/17 08:46:12;;;;;;;14.45;13.20;;;19.80;68.80;;;;;;5014318;28;20555;-88
2023/07/17 08:48:38;;;;;;;14.63;13.32;;;19.80;68.20;;;;;;5013770;28;20256;-89
2023/07/17 08:51:05;;;;;;;16.92;14.32;;;19.90;67.90;;;;;;5014164;28;20588;-89
2023/07/17 08:53:33;;;;;;;15.80;14.20;;;20.30;66.70;;;;;;5015930;28;20243;-90
2023/07/17 08:55:59;;;;;;;18.88;13.75;;;20.50;66.20;;;;;;5014407;28;20641;-90
2023/07/17 08:58:28;;;;;;;16.92;14.60;;;20.70;66.60;;;;;;5014687;28;20209;-90
2023/07/17 09:00:55;;;;;;;16.63;15.00;;;20.60;65.40;;;;;;5016056;28;20177;-89
2023/07/17 09:03:20;;;;;;;15.88;14.38;;;20.40;66.00;;;;;;5013658;28;20236;-90
2023/07/17 09:05:46;;;;;;;15.63;14.32;;;20.60;65.40;;;;;;5015939;28;20184;-89
2023/07/17 09:08:12;;;;;;;15.27;14.02;;;20.60;65.40;;;;;;5014947;28;20185;-89
2023/07/17 09:10:39;;;;;;;16.38;14.63;;;20.20;67.20;;;;;;5014009;28;20181;-89
2023/07/17 09:13:05;;;;;;;17.13;15.50;;;20.00;67.30;;;;;;5015454;28;20177;-90
2023/07/17 09:15:32;;;;;;;17.65;16.05;;;19.50;66.60;;;;;;5013995;28;20220;-89
2023/07/17 09:17:58;;;;;;;18.17;16.15;;;19.30;67.10;;;;;;5014288;28;20525;-89
2023/07/17 09:20:24;;;;;;;16.58;14.90;;;19.50;67.20;;;;;;5013071;28;20177;-89
2023/07/17 09:22:53;;;;;;;17.70;15.60;;;19.50;66.50;;;;;;5012838;28;20178;-89
2023/07/17 09:25:19;;;;;;;18.38;16.67;;;19.70;65.90;;;;;;5014619;28;20169;-90
2023/07/17 09:27:46;;;;;;;17.73;16.08;;;20.00;64.80;;;;;;5015306;28;20180;-90
2023/07/17 09:30:14;;;;;;;16.83;15.52;;;20.30;64.00;;;;;;5012805;28;20184;-85
2023/07/17 09:32:41;;;;;;;18.88;17.35;;;20.70;63.30;;;;;;5012363;28;20173;-86
2023/07/17 09:35:08;;;;;;;18.08;16.30;;;21.00;62.20;;;;;;5012650;28;20256;-89
2023/07/17 09:37:35;;;;;;;16.02;14.77;;;21.20;60.80;;;;;;5014154;28;20645;-89
2023/07/17 09:40:12;;;;;;;15.82;14.32;;;21.00;60.10;;;;;;5013220;28;20174;-90
2023/07/17 09:42:42;;;;;;;17.88;16.27;;;20.80;61.70;;;;;;5013585;28;20166;-89
2023/07/17 09:45:08;;;;;;;17.17;15.85;;;20.90;62.60;;;;;;5012806;28;20254;-89
2023/07/17 09:47:35;;;;;;;17.55;16.10;;;20.80;63.80;;;;;;5014090;28;20188;-90
2023/07/17 09:50:03;;;;;;;16.67;15.18;;;20.80;62.50;;;;;;5014983;28;20660;-90
2023/07/17 09:52:29;;;;;;;17.33;15.10;;;20.40;61.20;;;;;;5014331;28;20185;-90
2023/07/17 09:54:57;;;;;;;17.15;15.65;;;20.20;62.80;;;;;;5014394;28;20616;-88
2023/07/17 09:57:33;;;;;;;17.08;15.32;;;19.90;61.80;;;;;;5014009;28;20609;-89
2023/07/17 10:00:28;;;;;;;16.63;15.23;;;19.90;62.20;;;;;;5013040;28;20575;-88
2023/07/17 10:03:10;;;;;;;18.73;17.02;;;19.90;63.10;;;;;;5012770;28;20197;-90
2023/07/17 10:05:37;;;;;;;17.60;16.15;;;20.20;62.90;;;;;;5014127;28;20632;-86
2023/07/17 10:08:07;;;;;;;18.45;16.95;;;20.40;63.40;;;;;;5012632;28;20272;-87
2023/07/17 10:10:32;;;;;;;17.23;15.57;;;20.80;62.50;;;;;;5013054;28;20177;-89
2023/07/17 10:12:58;;;;;;;16.90;15.50;;;20.70;61.30;;;;;;5012414;28;20184;-89
2023/07/17 10:15:24;;;;;;;20.05;18.20;;;20.60;61.30;;;;;;5012477;28;20201;-89
2023/07/17 10:17:59;;;;;;;16.88;15.32;;;20.70;62.10;;;;;;5013833;28;20219;-89
2023/07/17 10:20:25;;;;;;;16.55;14.85;;;20.40;61.10;;;;;;5012323;28;20169;-87
2023/07/17 10:22:51;;;;;;;20.02;16.42;;;20.50;61.50;;;;;;5012365;28;20212;-88
2023/07/17 10:25:17;;;;;;;16.67;15.15;;;20.70;63.20;;;;;;5012563;28;20181;-87
2023/07/17 10:27:58;;;;;;;19.10;17.27;;;20.70;61.40;;;;;;5012278;28;20170;-88
2023/07/17 10:30:35;;;;;;;17.80;16.10;;;20.50;62.80;;;;;;5012860;28;20193;-90
2023/07/17 10:33:13;;;;;;;18.08;16.42;;;20.50;62.90;;;;;;5012898;28;20176;-89
2023/07/17 10:35:44;;;;;;;16.88;15.38;;;20.50;62.50;;;;;;5015716;28;20205;-88
2023/07/17 10:38:10;;;;;;;19.67;17.65;;;20.30;63.80;;;;;;5016562;28;20262;-90
2023/07/17 10:40:36;;;;;;;17.80;15.95;;;20.30;65.30;;;;;;5018268;28;20178;-89
2023/07/17 10:43:18;;;;;;;18.58;16.98;;;20.20;64.50;;;;;;5017102;28;20648;-90
2023/07/17 10:45:45;;;;;;;18.90;16.30;;;19.90;64.90;;;;;;5018456;28;20260;-90
2023/07/17 10:48:11;;;;;;;19.02;16.33;;;19.80;65.20;;;;;;5029062;28;20177;-92
2023/07/17 10:50:39;;;;;;;26.15;16.55;;;19.70;65.80;;;;;;5020319;28;20185;-89
2023/07/17 10:53:05;;;;;;;18.40;16.48;;;19.90;67.00;;;;;;5016863;28;20280;-90
2023/07/17 10:55:32;;;;;;;19.60;17.70;;;19.90;67.40;;;;;;5017249;28;20209;-90
2023/07/17 10:58:00;;;;;;;18.67;17.02;;;20.10;67.30;;;;;;5017073;28;20173;-89
2023/07/17 11:00:27;;;;;;;27.05;16.83;;;20.90;64.80;;;;;;5016343;28;20549;-89
2023/07/17 11:02:56;;;;;;;16.60;15.13;;;21.30;63.50;;;;;;5017193;28;20169;-88
2023/07/17 11:05:21;;;;;;;15.85;14.50;;;21.00;60.70;;;;;;5016346;28;20181;-89
2023/07/17 11:07:47;;;;;;;15.18;14.05;;;20.30;62.30;;;;;;5016742;28;20184;-89
2023/07/17 11:10:13;;;;;;;14.85;13.50;;;18.70;68.90;;;;;;5017384;28;20204;-88
2023/07/17 11:12:39;;;;;;;12.50;11.40;;;17.80;72.10;;;;;;5016790;28;20177;-88
2023/07/17 11:15:21;;;;;;;12.25;11.07;;;17.70;73.80;;;;;;5016728;28;20232;-90
2023/07/17 11:17:47;;;;;;;11.20;10.50;;;18.00;74.20;;;;;;5017139;28;20235;-89
2023/07/17 11:20:13;;;;;;;11.63;10.68;;;17.80;73.90;;;;;;5016959;28;20236;-91
2023/07/17 11:22:44;;;;;;;11.40;10.60;;;17.60;74.20;;;;;;5025594;28;20189;-92
2023/07/17 11:25:13;;;;;;;13.20;11.10;;;17.50;75.30;;;;;;5035983;28;20197;-92
2023/07/17 11:27:42;;;;;;;12.10;11.10;;;17.50;74.80;;;;;;5036813;28;20182;-92
2023/07/17 11:30:29;;;;;;;11.90;10.82;;;17.40;75.80;;;;;;5037103;28;20181;-92
2023/07/17 11:33:15;;;;;;;10.18;9.18;;;17.70;75.60;;;;;;5037153;28;20193;-92
2023/07/17 11:36:14;;;;;;;10.15;8.95;;;17.50;77.00;;;;;;5036181;28;20217;-93
2023/07/17 11:38:40;;;;;;;7.30;6.60;;;17.10;79.60;;;;;;5035869;28;20165;-93
2023/07/17 11:41:06;;;;;;;6.32;5.70;;;16.60;81.90;;;;;;5034119;28;20179;-93
2023/07/17 11:43:33;;;;;;;4.93;4.63;;;16.20;83.90;;;;;;5031878;28;20221;-93
2023/07/17 11:46:02;;;;;;;5.20;4.70;;;15.90;85.50;;;;;;5032663;28;20185;-93
2023/07/17 11:48:48;;;;;;;5.07;4.68;;;16.10;86.00;;;;;;5036717;28;20253;-93
2023/07/17 11:51:17;;;;;;;4.72;4.40;;;16.10;85.90;;;;;;5034158;28;20185;-94
2023/07/17 11:53:53;;;;;;;4.57;4.28;;;16.20;84.90;;;;;;5031171;28;20209;-93
2023/07/17 11:56:20;;;;;;;4.32;3.97;;;16.10;84.10;;;;;;5028512;28;20232;-93
2023/07/17 11:59:04;;;;;;;4.95;4.40;;;16.00;85.00;;;;;;5034485;28;20199;-93
2023/07/17 12:01:32;;;;;;;4.85;4.45;;;16.20;84.40;;;;;;5035377;28;20150;-94
2023/07/17 12:04:21;;;;;;;7.28;4.60;;;16.20;83.50;;;;;;5037956;28;20197;-93
2023/07/17 12:06:48;;;;;;;4.95;4.40;;;16.10;83.10;;;;;;5038594;28;20158;-93
2023/07/17 12:09:17;;;;;;;6.35;4.60;;;16.00;83.60;;;;;;5036898;28;20209;-94
2023/07/17 12:12:01;;;;;;;4.95;4.53;;;16.00;83.60;;;;;;5039272;28;20158;-94
2023/07/17 12:14:29;;;;;;;6.68;4.40;;;16.30;83.90;;;;;;5060431;23;20239;-95
2023/07/17 12:22:22;;;;;;;5.15;4.65;;;16.80;83.80;;;;;;5170444;23;20221;-93
2023/07/17 12:24:47;;;;;;;5.63;5.13;;;16.90;84.10;;;;;;5020927;28;20676;-94
2023/07/17 12:27:45;;;;;;;7.30;4.60;;;16.80;81.90;;;;;;5022819;28;20165;-95
2023/07/17 12:30:12;;;;;;;4.97;4.57;;;16.90;82.90;;;;;;5010441;28;20200;-93
2023/07/17 12:32:41;;;;;;;7.50;6.35;;;17.20;82.60;;;;;;5021670;28;20217;-93
2023/07/17 12:35:08;;;;;;;8.05;7.00;;;17.20;80.90;;;;;;5019950;28;20240;-94
2023/07/17 12:37:37;;;;;;;9.10;6.45;;;17.20;80.10;;;;;;5023471;28;20165;-94
2023/07/17 12:40:06;;;;;;;7.05;6.45;;;17.40;80.80;;;;;;5022939;28;20169;-94